createdAt,value
2023-03-04T00:00:48.386Z,47.57
2023-03-04T00:03:37.281Z,47.83
2023-03-04T00:06:26.075Z,47.91
2023-03-04T00:09:14.691Z,47.61
2023-03-04T00:12:03.300Z,47.93
2023-03-04T00:14:51.872Z,47.55
2023-03-04T00:17:41.947Z,47.55
2023-03-04T00:20:30.599Z,47.69
2023-03-04T00:23:19.226Z,47.99
2023-03-04T00:26:07.995Z,47.81
2023-03-04T00:29:00.689Z,47.83
2023-03-04T00:31:49.491Z,47.56
2023-03-04T00:34:40.825Z,47.65
2023-03-04T00:37:29.769Z,47.96
2023-03-04T00:40:18.750Z,47.80
2023-03-04T00:43:07.466Z,47.86
2023-03-04T00:45:56.467Z,47.96
2023-03-04T00:48:50.615Z,47.69
2023-03-04T00:51:42.330Z,47.92
2023-03-04T00:54:30.982Z,48.03
2023-03-04T00:57:19.754Z,47.70
2023-03-04T01:00:09.536Z,48.21
2023-03-04T01:02:58.289Z,48.04
2023-03-04T01:05:46.921Z,47.73
2023-03-04T01:08:37.083Z,48.26
2023-03-04T01:11:26.100Z,48.02
2023-03-04T01:14:14.718Z,48.10
2023-03-04T01:17:03.394Z,47.68
2023-03-04T01:19:52.153Z,48.18
2023-03-04T01:22:40.891Z,47.91
2023-03-04T01:25:30.871Z,47.93
2023-03-04T01:28:19.599Z,47.95
2023-03-04T01:31:08.387Z,48.31
2023-03-04T01:33:57.528Z,48.23
2023-03-04T01:36:46.119Z,47.83
2023-03-04T01:39:34.751Z,48.23
2023-03-04T01:42:35.315Z,48.09
2023-03-04T01:45:24.086Z,48.01
2023-03-04T01:48:16.946Z,48.20
2023-03-04T01:51:06.798Z,48.28
2023-03-04T01:53:55.479Z,48.27
2023-03-04T01:56:46.169Z,48.26
2023-03-04T01:59:36.137Z,48.17
2023-03-04T02:02:24.856Z,48.14
2023-03-04T02:05:13.714Z,48.01
2023-03-04T02:08:02.663Z,48.28
2023-03-04T02:10:52.089Z,48.23
2023-03-04T02:13:40.695Z,47.93
2023-03-04T02:16:30.856Z,48.25
2023-03-04T02:19:30.124Z,48.15
2023-03-04T02:22:18.828Z,48.17
2023-03-04T02:25:10.387Z,48.32
2023-03-04T02:28:03.521Z,48.05
2023-03-04T02:30:52.931Z,48.21
2023-03-04T02:33:41.632Z,48.22
2023-03-04T02:36:31.012Z,48.24
2023-03-04T02:39:25.528Z,48.46
2023-03-04T02:42:16.110Z,48.34
2023-03-04T02:45:06.903Z,48.25
2023-03-04T02:47:55.564Z,48.20
2023-03-04T02:50:46.049Z,48.34
2023-03-04T02:53:34.797Z,48.07
2023-03-04T02:56:23.477Z,48.24
2023-03-04T02:59:12.079Z,48.15
2023-03-04T03:02:02.330Z,48.17
2023-03-04T03:04:51.053Z,48.38
2023-03-04T03:07:39.675Z,48.36
2023-03-04T03:10:28.482Z,47.95
2023-03-04T03:13:17.317Z,48.20
2023-03-04T03:16:06.556Z,48.17
2023-03-04T03:18:56.822Z,48.08
2023-03-04T03:21:45.633Z,47.76
2023-03-04T03:24:34.291Z,47.97
2023-03-04T03:27:23.149Z,47.69
2023-03-04T03:30:14.396Z,47.87
2023-03-04T03:33:03.204Z,47.57
2023-03-04T03:35:53.445Z,47.70
2023-03-04T03:38:42.191Z,47.95
2023-03-04T03:41:31.016Z,48.20
2023-03-04T03:44:20.107Z,48.31
2023-03-04T03:47:08.912Z,48.39
2023-03-04T03:49:57.724Z,48.64
2023-03-04T03:52:47.908Z,47.93
2023-03-04T03:55:36.812Z,48.21
2023-03-04T03:58:26.797Z,48.12
2023-03-04T04:01:15.654Z,48.49
2023-03-04T04:04:04.394Z,48.30
2023-03-04T04:06:53.135Z,48.23
2023-03-04T04:09:43.333Z,48.00
2023-03-04T04:12:32.131Z,48.38
2023-03-04T04:15:21.132Z,47.85
2023-03-04T04:18:10.114Z,48.30
2023-03-04T04:20:58.887Z,48.18
2023-03-04T04:23:47.509Z,48.29
2023-03-04T04:26:37.517Z,47.76
2023-03-04T04:29:26.294Z,48.02
2023-03-04T04:32:14.935Z,48.35
2023-03-04T04:35:03.830Z,48.02
2023-03-04T04:37:52.538Z,48.15
2023-03-04T04:40:41.151Z,48.14
2023-03-04T04:43:31.191Z,48.03
2023-03-04T04:46:20.390Z,48.28
2023-03-04T04:49:09.752Z,47.98
2023-03-04T04:52:00.504Z,48.32
2023-03-04T04:54:49.342Z,48.11
2023-03-04T04:57:38.128Z,48.04
2023-03-04T05:00:28.175Z,48.33
2023-03-04T05:03:18.507Z,48.15
2023-03-04T05:06:09.402Z,48.20
2023-03-04T05:08:58.154Z,48.53
2023-03-04T05:11:46.737Z,48.03
2023-03-04T05:14:35.394Z,47.99
2023-03-04T05:17:25.650Z,47.87
2023-03-04T05:20:14.798Z,47.83
2023-03-04T05:23:03.503Z,48.37
2023-03-04T05:25:52.728Z,48.12
2023-03-04T05:28:41.709Z,48.28
2023-03-04T05:31:30.694Z,48.56
2023-03-04T05:34:20.757Z,48.37
2023-03-04T05:37:09.393Z,48.26
2023-03-04T05:39:57.985Z,48.32
2023-03-04T05:42:46.691Z,48.25
2023-03-04T05:45:35.878Z,48.10
2023-03-04T05:48:24.958Z,48.27
2023-03-04T05:51:15.070Z,48.42
2023-03-04T05:54:03.749Z,48.46
2023-03-04T05:56:52.379Z,48.32
2023-03-04T05:59:44.007Z,48.57
2023-03-04T06:02:32.695Z,48.50
2023-03-04T06:05:22.321Z,48.37
2023-03-04T06:08:12.641Z,47.92
2023-03-04T06:11:01.259Z,47.91
2023-03-04T06:13:49.975Z,47.83
2023-03-04T06:16:38.639Z,48.28
2023-03-04T06:19:27.238Z,48.32
2023-03-04T06:22:18.343Z,48.05
2023-03-04T06:25:09.513Z,48.11
2023-03-04T06:27:58.189Z,48.22
2023-03-04T06:30:46.906Z,48.41
2023-03-04T06:33:35.513Z,48.01
2023-03-04T06:36:24.185Z,47.99
2023-03-04T06:39:13.118Z,48.27
2023-03-04T06:42:03.101Z,48.66
2023-03-04T06:44:51.723Z,48.22
2023-03-04T06:47:40.377Z,48.57
2023-03-04T06:50:29.008Z,48.20
2023-03-04T06:53:17.705Z,48.35
2023-03-04T06:56:07.566Z,48.47
2023-03-04T06:58:57.616Z,48.28
2023-03-04T07:01:46.216Z,48.61
2023-03-04T07:04:38.126Z,48.77
2023-03-04T07:07:27.335Z,48.84
2023-03-04T07:10:15.972Z,48.39
2023-03-04T07:13:04.788Z,48.69
2023-03-04T07:15:54.905Z,48.67
2023-03-04T07:18:43.656Z,48.75
2023-03-04T07:21:32.272Z,48.53
2023-03-04T07:24:22.163Z,48.57
2023-03-04T07:27:10.783Z,48.59
2023-03-04T07:29:59.483Z,48.66
2023-03-04T07:32:49.628Z,48.84
2023-03-04T07:35:38.574Z,48.59
2023-03-04T07:38:27.162Z,48.59
2023-03-04T07:41:16.115Z,48.93
2023-03-04T07:44:06.117Z,48.91
2023-03-04T07:46:55.955Z,48.89
2023-03-04T07:49:46.034Z,48.55
2023-03-04T07:52:34.767Z,48.58
2023-03-04T07:55:25.263Z,48.58
2023-03-04T07:58:13.958Z,48.38
2023-03-04T08:01:02.642Z,48.43
2023-03-04T08:03:51.312Z,48.49
2023-03-04T08:06:42.018Z,48.39
2023-03-04T08:09:31.522Z,48.58
2023-03-04T08:12:20.387Z,48.61
2023-03-04T08:15:10.457Z,48.59
2023-03-04T08:17:59.094Z,48.04
2023-03-04T08:20:47.735Z,48.20
2023-03-04T08:23:37.697Z,47.88
2023-03-04T08:26:30.551Z,46.87
2023-03-04T08:29:21.597Z,46.54
2023-03-04T08:32:13.396Z,45.67
2023-03-04T08:35:02.421Z,45.42
2023-03-04T08:37:51.001Z,44.54
2023-03-04T08:40:41.302Z,44.85
2023-03-04T08:43:31.209Z,43.34
2023-03-04T08:46:41.832Z,42.95
2023-03-04T08:49:30.584Z,42.15
2023-03-04T08:52:19.323Z,41.89
2023-03-04T08:55:08.717Z,41.67
2023-03-04T08:58:00.567Z,41.10
2023-03-04T09:00:51.553Z,40.68
2023-03-04T09:03:40.535Z,40.75
2023-03-04T09:06:29.520Z,40.53
2023-03-04T09:09:18.270Z,40.36
2023-03-04T09:12:07.443Z,40.04
2023-03-04T09:15:10.335Z,40.22
2023-03-04T09:17:59.985Z,40.00
2023-03-04T09:20:49.086Z,39.65
2023-03-04T09:23:37.903Z,39.80
2023-03-04T09:26:28.944Z,40.21
2023-03-04T09:29:17.610Z,39.53
2023-03-04T09:32:08.583Z,39.38
2023-03-04T09:34:57.322Z,39.94
2023-03-04T09:37:46.723Z,39.64
2023-03-04T09:40:41.065Z,39.58
2023-03-04T09:43:32.033Z,39.53
2023-03-04T09:46:24.878Z,39.75
2023-03-04T09:49:15.337Z,39.91
2023-03-04T09:52:07.606Z,40.08
2023-03-04T09:55:04.815Z,40.24
2023-03-04T09:57:55.608Z,40.43
2023-03-04T10:00:47.571Z,40.98
2023-03-04T10:03:44.442Z,40.77
2023-03-04T10:06:35.580Z,40.99
2023-03-04T10:09:27.120Z,40.50
2023-03-04T10:12:19.157Z,39.58
2023-03-04T10:15:25.852Z,39.18
2023-03-04T10:18:23.440Z,39.81
2023-03-04T10:21:21.856Z,40.79
2023-03-04T10:24:14.791Z,40.78
2023-03-04T10:27:06.788Z,40.58
2023-03-04T10:29:55.671Z,40.86
2023-03-04T10:32:49.187Z,40.52
2023-03-04T10:35:38.793Z,40.63
2023-03-04T10:38:27.900Z,40.21
2023-03-04T10:41:19.700Z,40.26
2023-03-04T10:44:17.640Z,40.38
2023-03-04T10:47:14.587Z,40.27
2023-03-04T10:50:06.133Z,39.54
2023-03-04T10:52:55.946Z,40.52
2023-03-04T10:55:46.193Z,41.37
2023-03-04T10:58:36.229Z,41.91
2023-03-04T11:01:25.452Z,42.02
2023-03-04T11:04:19.536Z,42.40
2023-03-04T11:07:11.279Z,42.46
2023-03-04T11:10:11.310Z,42.47
2023-03-04T11:13:02.967Z,42.58
2023-03-04T11:15:58.191Z,43.21
2023-03-04T11:18:49.193Z,43.28
2023-03-04T11:21:41.822Z,43.11
2023-03-04T11:24:31.879Z,43.23
2023-03-04T11:27:22.899Z,43.50
2023-03-04T11:30:34.369Z,43.45
2023-03-04T11:33:29.599Z,43.38
2023-03-04T11:36:28.320Z,43.54
2023-03-04T11:39:23.485Z,43.80
2023-03-04T11:42:20.316Z,43.81
2023-03-04T11:45:27.926Z,43.76
2023-03-04T11:48:21.490Z,43.90
2023-03-04T11:51:15.423Z,43.53
2023-03-04T11:54:14.495Z,42.03
2023-03-04T11:57:10.834Z,42.89
2023-03-04T12:00:20.378Z,43.01
2023-03-04T12:03:29.448Z,42.81
2023-03-04T12:06:27.159Z,43.17
2023-03-04T12:09:27.868Z,42.75
2023-03-04T12:12:30.527Z,42.79
2023-03-04T12:15:23.000Z,43.09
2023-03-04T12:18:23.967Z,42.38
2023-03-04T12:21:21.579Z,42.48
2023-03-04T12:24:25.364Z,42.72
2023-03-04T12:27:21.547Z,42.80
2023-03-04T12:30:19.293Z,42.92
2023-03-04T12:33:16.788Z,43.21
2023-03-04T12:36:20.039Z,42.76
2023-03-04T12:39:23.314Z,42.62
2023-03-04T12:42:22.391Z,42.24
2023-03-04T12:45:18.738Z,41.46
2023-03-04T12:48:12.838Z,42.56
2023-03-04T12:51:11.677Z,42.78
2023-03-04T12:54:08.361Z,41.26
2023-03-04T12:57:00.422Z,41.53
2023-03-04T12:59:56.260Z,43.00
2023-03-04T13:02:54.114Z,42.88
2023-03-04T13:06:05.130Z,42.90
2023-03-04T13:09:00.508Z,42.86
2023-03-04T13:11:54.946Z,42.79
2023-03-04T13:15:28.874Z,42.73
2023-03-04T13:18:33.217Z,43.02
2023-03-04T13:21:25.929Z,43.02
2023-03-04T13:24:46.301Z,42.95
2023-03-04T13:27:49.387Z,42.89
2023-03-04T13:30:45.603Z,42.68
2023-03-04T13:34:07.183Z,42.94
2023-03-04T13:36:59.278Z,43.01
2023-03-04T13:40:31.132Z,43.39
2023-03-04T13:43:26.797Z,43.15
2023-03-04T13:46:41.087Z,42.77
2023-03-04T13:49:29.962Z,43.04
2023-03-04T13:52:39.356Z,42.04
2023-03-04T13:55:39.374Z,42.43
2023-03-04T13:58:29.029Z,42.75
2023-03-04T14:01:32.916Z,42.77
2023-03-04T14:04:23.374Z,43.15
2023-03-04T14:07:23.857Z,42.91
2023-03-04T14:10:24.527Z,43.07
2023-03-04T14:13:13.508Z,43.61
2023-03-04T14:16:02.606Z,43.31
2023-03-04T14:19:07.057Z,43.18
2023-03-04T14:21:56.819Z,43.61
2023-03-04T14:24:58.239Z,43.54
2023-03-04T14:27:47.656Z,43.38
2023-03-04T14:30:43.252Z,43.23
2023-03-04T14:33:33.333Z,43.42
2023-03-04T14:36:25.962Z,43.33
2023-03-04T14:39:16.983Z,43.16
2023-03-04T14:42:12.032Z,43.21
2023-03-04T14:45:02.611Z,43.67
2023-03-04T14:47:52.150Z,43.11
2023-03-04T14:50:50.108Z,42.91
2023-03-04T14:53:55.909Z,43.33
2023-03-04T14:56:46.249Z,43.00
2023-03-04T14:59:36.525Z,42.75
2023-03-04T15:02:33.202Z,42.89
2023-03-04T15:05:26.535Z,42.83
2023-03-04T15:08:23.790Z,42.91
2023-03-04T15:11:23.976Z,42.82
2023-03-04T15:14:43.830Z,42.89
2023-03-04T15:17:37.863Z,42.59
2023-03-04T15:20:29.752Z,42.94
2023-03-04T15:23:18.692Z,43.02
2023-03-04T15:26:11.114Z,42.89
2023-03-04T15:29:01.717Z,43.28
2023-03-04T15:31:51.818Z,43.41
2023-03-04T15:34:40.640Z,43.52
2023-03-04T15:37:30.603Z,43.61
2023-03-04T15:40:26.623Z,43.58
2023-03-04T15:43:17.279Z,43.00
2023-03-04T15:46:07.833Z,43.64
2023-03-04T15:48:56.718Z,44.11
2023-03-04T15:51:45.658Z,43.93
2023-03-04T15:54:34.903Z,44.17
2023-03-04T15:57:26.610Z,44.05
2023-03-04T16:00:18.137Z,44.56
2023-03-04T16:03:08.416Z,44.67
2023-03-04T16:05:57.213Z,44.42
2023-03-04T16:08:47.578Z,44.63
2023-03-04T16:11:39.206Z,44.50
2023-03-04T16:14:28.131Z,44.68
2023-03-04T16:17:17.463Z,44.42
2023-03-04T16:20:09.846Z,44.83
2023-03-04T16:23:00.740Z,44.44
2023-03-04T16:25:50.641Z,44.42
2023-03-04T16:28:46.194Z,44.39
2023-03-04T16:31:36.660Z,44.33
2023-03-04T16:34:25.482Z,44.34
2023-03-04T16:37:17.428Z,44.67
2023-03-04T16:40:07.665Z,44.00
2023-03-04T16:42:56.582Z,43.78
2023-03-04T16:45:45.983Z,43.58
2023-03-04T16:48:35.186Z,43.24
2023-03-04T16:51:25.128Z,43.28
2023-03-04T16:54:18.984Z,43.55
2023-03-04T16:57:09.062Z,43.66
2023-03-04T16:59:57.741Z,44.11
2023-03-04T17:02:46.841Z,43.97
2023-03-04T17:05:35.732Z,43.98
2023-03-04T17:08:24.650Z,44.12
2023-03-04T17:11:17.818Z,43.81
2023-03-04T17:14:06.584Z,43.75
2023-03-04T17:16:55.265Z,43.67
2023-03-04T17:19:43.935Z,43.54
2023-03-04T17:22:32.527Z,43.50
2023-03-04T17:25:21.340Z,43.64
2023-03-04T17:28:11.320Z,43.95
2023-03-04T17:31:00.170Z,43.73
2023-03-04T17:33:56.508Z,43.74
2023-03-04T17:36:45.144Z,43.83
2023-03-04T17:39:33.803Z,43.72
2023-03-04T17:42:22.651Z,43.33
2023-03-04T17:45:13.443Z,43.87
2023-03-04T17:48:02.161Z,44.66
2023-03-04T17:50:51.386Z,44.34
2023-03-04T17:53:40.694Z,44.39
2023-03-04T17:56:31.390Z,44.02
2023-03-04T17:59:20.028Z,44.08
2023-03-04T18:02:13.938Z,43.82
2023-03-04T18:05:06.755Z,43.61
2023-03-04T18:07:55.615Z,43.56
2023-03-04T18:10:44.555Z,43.87
2023-03-04T18:13:33.310Z,44.08
2023-03-04T18:16:26.613Z,44.13
2023-03-04T18:19:18.670Z,44.38
2023-03-04T18:22:07.577Z,44.31
2023-03-04T18:24:56.133Z,44.56
2023-03-04T18:27:44.862Z,44.34
2023-03-04T18:30:33.659Z,44.39
2023-03-04T18:33:22.684Z,44.87
2023-03-04T18:36:13.338Z,44.33
2023-03-04T18:39:04.621Z,44.47
2023-03-04T18:41:53.255Z,44.68
2023-03-04T18:44:42.043Z,45.04
2023-03-04T18:47:30.870Z,44.85
2023-03-04T18:50:20.582Z,45.02
2023-03-04T18:53:11.626Z,45.13
2023-03-04T18:56:05.528Z,45.06
2023-03-04T18:58:54.268Z,44.90
2023-03-04T19:01:43.396Z,44.81
2023-03-04T19:04:32.313Z,44.92
2023-03-04T19:07:21.179Z,45.09
2023-03-04T19:10:12.802Z,44.92
2023-03-04T19:13:02.195Z,44.82
2023-03-04T19:15:51.752Z,45.24
2023-03-04T19:18:40.617Z,45.18
2023-03-04T19:21:29.440Z,45.00
2023-03-04T19:24:18.305Z,45.37
2023-03-04T19:27:08.537Z,45.30
2023-03-04T19:29:57.382Z,45.15
2023-03-04T19:32:46.443Z,45.19
2023-03-04T19:35:37.388Z,45.27
2023-03-04T19:38:26.445Z,45.35
2023-03-04T19:41:16.541Z,45.50
2023-03-04T19:44:06.798Z,45.49
2023-03-04T19:46:55.662Z,45.39
2023-03-04T19:49:44.694Z,45.21
2023-03-04T19:52:33.704Z,45.56
2023-03-04T19:55:22.549Z,45.48
2023-03-04T19:58:11.244Z,45.08
2023-03-04T20:01:01.566Z,45.16
2023-03-04T20:03:50.440Z,45.19
2023-03-04T20:06:40.889Z,45.38
2023-03-04T20:09:29.919Z,45.13
2023-03-04T20:12:18.721Z,45.13
2023-03-04T20:15:09.364Z,45.15
2023-03-04T20:17:59.694Z,44.89
2023-03-04T20:20:48.924Z,45.12
2023-03-04T20:23:38.106Z,45.17
2023-03-04T20:26:26.905Z,45.15
2023-03-04T20:29:15.817Z,45.11
2023-03-04T20:32:05.499Z,45.11
2023-03-04T20:34:57.243Z,45.50
2023-03-04T20:37:46.635Z,45.48
2023-03-04T20:40:35.983Z,45.31
2023-03-04T20:43:26.998Z,45.24
2023-03-04T20:46:34.648Z,45.05
2023-03-04T20:49:25.636Z,45.30
2023-03-04T20:52:15.999Z,45.27
2023-03-04T20:55:04.757Z,45.45
2023-03-04T20:57:53.529Z,45.49
2023-03-04T21:00:45.378Z,45.02
2023-03-04T21:03:34.459Z,45.32
2023-03-04T21:06:25.307Z,45.42
2023-03-04T21:09:17.720Z,45.73
2023-03-04T21:12:06.869Z,45.48
2023-03-04T21:14:55.756Z,45.34
2023-03-04T21:17:44.633Z,45.36
2023-03-04T21:20:33.686Z,45.53
2023-03-04T21:23:22.797Z,45.23
2023-03-04T21:26:12.919Z,45.57
2023-03-04T21:29:01.689Z,45.57
2023-03-04T21:31:52.206Z,45.46
2023-03-04T21:34:42.933Z,45.60
2023-03-04T21:37:31.578Z,45.52
2023-03-04T21:40:23.210Z,45.59
2023-03-04T21:43:13.279Z,45.68
2023-03-04T21:46:01.955Z,46.17
2023-03-04T21:48:50.786Z,46.55
2023-03-04T21:51:39.726Z,46.54
2023-03-04T21:54:28.393Z,47.55
2023-03-04T21:57:17.170Z,46.94
2023-03-04T22:00:08.891Z,47.06
2023-03-04T22:02:57.578Z,47.28
2023-03-04T22:05:47.837Z,47.08
2023-03-04T22:08:45.742Z,47.26
2023-03-04T22:11:38.938Z,47.21
2023-03-04T22:14:29.442Z,47.15
2023-03-04T22:17:19.649Z,46.81
2023-03-04T22:20:12.472Z,46.88
2023-03-04T22:23:01.199Z,46.97
2023-03-04T22:25:49.852Z,47.25
2023-03-04T22:28:39.407Z,46.89
2023-03-04T22:31:30.969Z,47.25
2023-03-04T22:34:21.178Z,47.85
2023-03-04T22:37:09.767Z,48.10
2023-03-04T22:39:58.991Z,48.43
2023-03-04T22:42:48.605Z,48.43
2023-03-04T22:45:37.291Z,48.38
2023-03-04T22:48:26.110Z,48.17
2023-03-04T22:51:16.357Z,48.41
2023-03-04T22:54:05.268Z,48.46
2023-03-04T22:56:53.901Z,48.61
2023-03-04T22:59:42.591Z,48.62
2023-03-04T23:02:31.259Z,48.46
2023-03-04T23:05:21.569Z,48.24
2023-03-04T23:08:11.558Z,48.48
2023-03-04T23:11:00.169Z,48.33
2023-03-04T23:13:49.741Z,48.20
2023-03-04T23:16:43.288Z,48.33
2023-03-04T23:19:31.953Z,48.26
2023-03-04T23:22:20.844Z,47.94
2023-03-04T23:25:11.561Z,47.93
2023-03-04T23:28:00.281Z,48.13
2023-03-04T23:30:49.042Z,47.87
2023-03-04T23:33:39.502Z,48.19
2023-03-04T23:36:29.556Z,48.22
2023-03-04T23:39:18.422Z,47.99
2023-03-04T23:42:08.842Z,48.19
2023-03-04T23:44:57.636Z,48.26
2023-03-04T23:47:46.381Z,48.28
2023-03-04T23:50:35.830Z,48.15
2023-03-04T23:53:24.550Z,48.39
2023-03-04T23:56:14.832Z,48.13
2023-03-04T23:59:04.838Z,48.37
